^^

New Milford Station Historical Data

 
Daily Summary for November 18, 2018 Units:  English    Metric   Both
Daily Weekly Monthly Yearly Custom
  Current: High: Low: Average:
Temperature: 33.3 °F 35.9 °F 33.3 °F 34.6 °F
Dew Point: 30.7 °F 33.5 °F 30.7 °F 32.2 °F
Humidity: 90% 92% 87% 91%
Wind Speed: 0.0mph 2.0mph 0.0mph 0.2mph
Wind Gust: 0.0mph 5.0mph - -
WindCalm - - South
Pressure: 30.31 in 30.31 in 30.21 in -
Precipitation: 0.00 in      
Historical Graphs
 
 
Tabular Data for November 18, 2018
Time Temperature Dew Point Pressure Wind Wind Speed Wind Gust Humidity Rainfall Rate (Hourly) solar
00:00 35.9 °F 33.5 °F 30.22 in Calm   2.0 mph 91% 0.00 in WeatherDisplay:10.37 W/m2
00:05 35.8 °F 33.5 °F 30.22 in Calm     91% 0.00 in WeatherDisplay:10.37 W/m2
00:10 35.8 °F 33.4 °F 30.22 in Calm     91% 0.00 in WeatherDisplay:10.37 W/m2
00:15 35.6 °F 32.6 °F 30.22 in West 2.0 mph 5.0 mph 89% 0.00 in WeatherDisplay:10.37 W/m2
00:20 35.8 °F 33.2 °F 30.22 in Calm   1.0 mph 90% 0.00 in WeatherDisplay:10.37 W/m2
00:25 35.6 °F 33.0 °F 30.21 in Calm     90% 0.00 in WeatherDisplay:10.37 W/m2
00:30 35.4 °F 33.0 °F 30.21 in Calm     91% 0.00 in WeatherDisplay:10.37 W/m2
00:35 35.2 °F 32.8 °F 30.22 in Calm   2.0 mph 91% 0.00 in WeatherDisplay:10.37 W/m2
00:40 35.2 °F 33.1 °F 30.22 in SW 1.0 mph 2.0 mph 92% 0.00 in WeatherDisplay:10.37 W/m2
00:45 35.1 °F 33.0 °F 30.22 in Calm   1.0 mph 92% 0.00 in WeatherDisplay:10.37 W/m2
00:50 34.8 °F 32.7 °F 30.22 in SSE 1.0 mph 2.0 mph 92% 0.00 in WeatherDisplay:10.37 W/m2
00:55 35.0 °F 32.9 °F 30.22 in Calm   2.0 mph 92% 0.00 in WeatherDisplay:10.37 W/m2
01:00 35.0 °F 32.9 °F 30.22 in Calm   2.0 mph 92% 0.00 in WeatherDisplay:10.37 W/m2
01:05 35.0 °F 32.9 °F 30.23 in Calm   2.0 mph 92% 0.00 in WeatherDisplay:10.37 W/m2
01:10 34.9 °F 32.8 °F 30.23 in Calm     92% 0.00 in WeatherDisplay:10.37 W/m2
01:15 34.9 °F 32.8 °F 30.24 in Calm     92% 0.00 in WeatherDisplay:10.37 W/m2
01:20 34.9 °F 32.8 °F 30.24 in Calm     92% 0.00 in WeatherDisplay:10.37 W/m2
01:25 35.0 °F 32.9 °F 30.24 in Calm     92% 0.00 in WeatherDisplay:10.37 W/m2
01:30 35.0 °F 32.9 °F 30.24 in Calm     92% 0.00 in WeatherDisplay:10.37 W/m2
01:35 35.1 °F 33.0 °F 30.24 in Calm   2.0 mph 92% 0.00 in WeatherDisplay:10.37 W/m2
01:40 35.1 °F 32.7 °F 30.24 in Calm     91% 0.00 in WeatherDisplay:10.37 W/m2
01:45 35.1 °F 32.7 °F 30.24 in SSE 2.0 mph 2.0 mph 91% 0.00 in WeatherDisplay:10.37 W/m2
01:50 35.0 °F 32.9 °F 30.24 in Calm   2.0 mph 92% 0.00 in WeatherDisplay:10.37 W/m2
01:55 34.8 °F 32.7 °F 30.25 in Calm   1.0 mph 92% 0.00 in WeatherDisplay:10.37 W/m2
02:00 34.8 °F 32.7 °F 30.25 in Calm   1.0 mph 92% 0.00 in WeatherDisplay:10.37 W/m2
02:05 34.8 °F 32.4 °F 30.25 in Calm     91% 0.00 in WeatherDisplay:10.37 W/m2
02:10 34.8 °F 32.5 °F 30.25 in Calm   2.0 mph 91% 0.00 in WeatherDisplay:10.37 W/m2
02:15 34.9 °F 31.4 °F 30.25 in South 2.0 mph 3.0 mph 87% 0.00 in WeatherDisplay:10.37 W/m2
02:20 35.3 °F 32.1 °F 30.25 in Calm   2.0 mph 88% 0.00 in WeatherDisplay:10.37 W/m2
02:25 35.3 °F 32.6 °F 30.25 in Calm     90% 0.00 in WeatherDisplay:10.37 W/m2
02:30 35.1 °F 32.5 °F 30.26 in Calm     90% 0.00 in WeatherDisplay:10.37 W/m2
02:35 35.1 °F 32.5 °F 30.26 in Calm     90% 0.00 in WeatherDisplay:10.37 W/m2
02:40 35.0 °F 32.4 °F 30.26 in Calm     90% 0.00 in WeatherDisplay:10.37 W/m2
02:45 35.0 °F 32.3 °F 30.26 in Calm     90% 0.00 in WeatherDisplay:10.37 W/m2
02:50 34.9 °F 32.6 °F 30.26 in South 1.0 mph 1.0 mph 91% 0.00 in WeatherDisplay:10.37 W/m2
02:55 34.9 °F 32.5 °F 30.26 in Calm   1.0 mph 91% 0.00 in WeatherDisplay:10.37 W/m2
03:00 34.8 °F 32.5 °F 30.26 in Calm     91% 0.00 in WeatherDisplay:10.37 W/m2
03:05 34.8 °F 32.4 °F 30.26 in Calm     91% 0.00 in WeatherDisplay:10.37 W/m2
03:10 34.8 °F 32.4 °F 30.26 in Calm     91% 0.00 in WeatherDisplay:10.37 W/m2
03:15 34.7 °F 32.3 °F 30.27 in Calm     91% 0.00 in WeatherDisplay:10.37 W/m2
03:20 34.6 °F 32.3 °F 30.27 in Calm   1.0 mph 91% 0.00 in WeatherDisplay:10.37 W/m2
03:25 34.7 °F 32.3 °F 30.27 in Calm   2.0 mph 91% 0.00 in WeatherDisplay:10.37 W/m2
03:30 34.7 °F 32.3 °F 30.27 in Calm     91% 0.00 in WeatherDisplay:10.37 W/m2
03:35 34.7 °F 32.3 °F 30.27 in Calm     91% 0.00 in WeatherDisplay:10.37 W/m2
03:40 34.6 °F 32.2 °F 30.27 in Calm     91% 0.00 in WeatherDisplay:10.37 W/m2
03:45 34.6 °F 32.2 °F 30.27 in Calm     91% 0.00 in WeatherDisplay:10.37 W/m2
03:50 34.5 °F 31.6 °F 30.27 in Calm     89% 0.00 in WeatherDisplay:10.37 W/m2
03:55 34.7 °F 32.1 °F 30.27 in Calm     90% 0.00 in WeatherDisplay:10.37 W/m2
04:00 34.6 °F 32.2 °F 30.27 in Calm     91% 0.00 in WeatherDisplay:10.37 W/m2
04:05 34.5 °F 31.9 °F 30.28 in Calm   1.0 mph 90% 0.00 in WeatherDisplay:10.37 W/m2
04:10 34.4 °F 32.0 °F 30.28 in Calm     91% 0.00 in WeatherDisplay:10.37 W/m2
04:15 34.3 °F 31.9 °F 30.28 in Calm     91% 0.00 in WeatherDisplay:10.37 W/m2
04:20 34.1 °F 31.7 °F 30.28 in Calm   1.0 mph 91% 0.00 in WeatherDisplay:10.37 W/m2
04:25 34.0 °F 31.7 °F 30.28 in Calm   3.0 mph 91% 0.00 in WeatherDisplay:10.37 W/m2
04:30 33.9 °F 31.6 °F 30.29 in South 1.0 mph 2.0 mph 91% 0.00 in WeatherDisplay:10.37 W/m2
04:35 33.8 °F 31.5 °F 30.29 in Calm   2.0 mph 91% 0.00 in WeatherDisplay:10.37 W/m2
04:40 33.8 °F 31.7 °F 30.29 in Calm   2.0 mph 92% 0.00 in WeatherDisplay:10.37 W/m2
04:45 33.6 °F 31.3 °F 30.29 in Calm     91% 0.00 in WeatherDisplay:10.37 W/m2
04:50 33.6 °F 31.2 °F 30.29 in Calm     91% 0.00 in WeatherDisplay:10.37 W/m2
04:55 33.5 °F 31.2 °F 30.30 in Calm     91% 0.00 in WeatherDisplay:10.37 W/m2
05:00 33.5 °F 31.4 °F 30.30 in South 1.0 mph 2.0 mph 92% 0.00 in WeatherDisplay:10.37 W/m2
05:05 33.4 °F 31.1 °F 30.30 in Calm   2.0 mph 91% 0.00 in WeatherDisplay:10.37 W/m2
05:10 33.4 °F 31.1 °F 30.29 in Calm     91% 0.00 in WeatherDisplay:10.37 W/m2
05:15 33.3 °F 31.0 °F 30.30 in Calm     91% 0.00 in WeatherDisplay:10.37 W/m2
05:20 33.3 °F 31.0 °F 30.30 in Calm     91% 0.00 in WeatherDisplay:10.37 W/m2
05:25 33.4 °F 31.1 °F 30.30 in Calm     91% 0.00 in WeatherDisplay:10.37 W/m2
05:30 33.4 °F 31.1 °F 30.30 in Calm     91% 0.00 in WeatherDisplay:10.37 W/m2
05:35 33.4 °F 31.1 °F 30.30 in Calm     91% 0.00 in WeatherDisplay:10.37 W/m2
05:40 33.4 °F 31.1 °F 30.30 in Calm     91% 0.00 in WeatherDisplay:10.37 W/m2
05:45 33.3 °F 30.7 °F 30.31 in Calm     90% 0.00 in WeatherDisplay:10.37 W/m2
05:50 33.3 °F 30.7 °F 30.31 in Calm     90% 0.00 in WeatherDisplay:10.37 W/m2
Compliments of Weather Underground - 1.25 mb